Millbury, OH

12:59 PM EST on February 09, 2016 (GMT -0500)
Metcalf | | Change Station
CLOSE
Current Station
Airport
Location: Toledo Metcalf,
Elevation: 623 ft
Nearby Weather Stations

Elev 623 ft 41.56 °N, 83.48 °W | Updated 6 minutes ago

Light Snow
Light Snow Mist
31 °F
Feels Like 20 °F
N
15
Wind Variable Wind from NW

Today
High -- | Low -- °F
--% Chance of Precip.
Yesterday
High -- | Low -- °F
Precip. -- in
Pressure 29.64 in
Visibility 2.0 miles
Clouds Mostly Cloudy 1200 ft
Overcast 3400 ft
Windchill 20 °F
Dew Point 27 °F
Humidity 85%
Rainfall 0.02 in
Snow Depth Not available.
7:37 AM 5:59 PM
New Moon, 2% visible
METAR KTDZ 091753Z AUTO 31013KT 2SM -SN BR BKN012 OVC034 M01/M03 A2962 RMK AO2 SLP036 P0000 60002 T10061028 10000 21017 51002
Pressure 29.64 in
Visibility 2.0 miles
Clouds Mostly Cloudy 1200 ft
Overcast 3400 ft
Windchill 20 °F
Dew Point 27 °F
Humidity 85%
Rainfall 0.02 in
Snow Depth Not available.
7:37 AM 5:59 PM
New Moon, 2% visible
METAR KTDZ 091753Z AUTO 31013KT 2SM -SN BR BKN012 OVC034 M01/M03 A2962 RMK AO2 SLP036 P0000 60002 T10061028 10000 21017 51002

10-Day Weather Forecast

Almanac

Astronomy

Feb. 09, 2016 Rise Set
Actual Time
Civil Twilight
Nautical Twilight
Astronomical Twilight
Moon
Length of Visible Light
Length of Day
Tomorrow will be .
, % of the Moon is Illuminated

Today's Extremes

State Highs State Lows

Community

WunderPhotos

Upload Photos

1,891,650 photos uploaded!

WunderBlog® & News

Nearby

Air Quality

  Air Quality AQ Index Pollutant
Not available.

Snow Depth

Station Depth Elevation

Earthquake Activity

City Distance Mag. Time & Date
Minimum magnitude displayed is 2.5.

Coastal Water Temperatures

Place Temperature

Stations

Nearby Weather Stations

Station Location Temp. Windchill Dew Point Humidity Wind Precip. Elev Updated Type
                   

Watches & Warnings

There are currently no watches in effect.